sensor_id;sensor_type;location;lat;lon;timestamp;P1;durP1;ratioP1;P2;durP2;ratioP2
14554;SDS011;7364;50.870;4.722;2022-10-16T00:02:01;3.97;;;1.80;;
14554;SDS011;7364;50.870;4.722;2022-10-16T00:04:29;4.00;;;1.73;;
14554;SDS011;7364;50.870;4.722;2022-10-16T00:06:56;2.60;;;1.50;;
14554;SDS011;7364;50.870;4.722;2022-10-16T00:09:23;7.40;;;2.17;;
14554;SDS011;7364;50.870;4.722;2022-10-16T00:11:50;5.30;;;2.13;;
14554;SDS011;7364;50.870;4.722;2022-10-16T00:14:17;3.30;;;2.00;;
14554;SDS011;7364;50.870;4.722;2022-10-16T00:16:46;3.00;;;1.90;;
14554;SDS011;7364;50.870;4.722;2022-10-16T00:19:13;3.37;;;1.80;;
14554;SDS011;7364;50.870;4.722;2022-10-16T00:21:41;3.17;;;1.87;;
14554;SDS011;7364;50.870;4.722;2022-10-16T00:24:09;2.93;;;1.70;;
14554;SDS011;7364;50.870;4.722;2022-10-16T00:26:38;2.27;;;1.43;;
14554;SDS011;7364;50.870;4.722;2022-10-16T00:29:06;2.30;;;1.40;;
14554;SDS011;7364;50.870;4.722;2022-10-16T00:31:33;2.47;;;1.37;;
14554;SDS011;7364;50.870;4.722;2022-10-16T00:34:02;4.20;;;1.57;;
14554;SDS011;7364;50.870;4.722;2022-10-16T00:36:30;3.87;;;1.53;;
14554;SDS011;7364;50.870;4.722;2022-10-16T00:38:57;3.83;;;1.33;;
14554;SDS011;7364;50.870;4.722;2022-10-16T00:41:25;2.20;;;1.27;;
14554;SDS011;7364;50.870;4.722;2022-10-16T00:43:54;2.50;;;1.53;;
14554;SDS011;7364;50.870;4.722;2022-10-16T00:46:23;5.70;;;1.53;;
14554;SDS011;7364;50.870;4.722;2022-10-16T00:48:54;3.33;;;1.23;;
14554;SDS011;7364;50.870;4.722;2022-10-16T00:51:33;1.40;;;0.90;;
14554;SDS011;7364;50.870;4.722;2022-10-16T00:54:04;3.37;;;1.40;;
14554;SDS011;7364;50.870;4.722;2022-10-16T00:56:35;2.50;;;1.30;;
14554;SDS011;7364;50.870;4.722;2022-10-16T00:59:03;1.67;;;1.10;;
14554;SDS011;7364;50.870;4.722;2022-10-16T01:01:34;5.70;;;1.30;;
14554;SDS011;7364;50.870;4.722;2022-10-16T01:04:01;1.93;;;1.20;;
14554;SDS011;7364;50.870;4.722;2022-10-16T01:06:31;5.43;;;1.40;;
14554;SDS011;7364;50.870;4.722;2022-10-16T01:09:09;1.97;;;1.10;;
14554;SDS011;7364;50.870;4.722;2022-10-16T01:11:43;1.17;;;0.87;;
14554;SDS011;7364;50.870;4.722;2022-10-16T01:14:19;6.43;;;1.23;;
14554;SDS011;7364;50.870;4.722;2022-10-16T01:16:53;1.87;;;1.10;;
14554;SDS011;7364;50.870;4.722;2022-10-16T01:19:26;1.93;;;1.20;;
14554;SDS011;7364;50.870;4.722;2022-10-16T01:22:04;1.93;;;1.10;;
14554;SDS011;7364;50.870;4.722;2022-10-16T01:24:37;3.00;;;1.20;;
14554;SDS011;7364;50.870;4.722;2022-10-16T01:27:11;1.97;;;1.10;;
14554;SDS011;7364;50.870;4.722;2022-10-16T01:29:41;2.37;;;1.37;;
14554;SDS011;7364;50.870;4.722;2022-10-16T01:32:16;2.30;;;1.20;;
14554;SDS011;7364;50.870;4.722;2022-10-16T01:34:49;3.83;;;1.10;;
14554;SDS011;7364;50.870;4.722;2022-10-16T01:37:22;2.60;;;1.13;;
14554;SDS011;7364;50.870;4.722;2022-10-16T01:39:56;3.50;;;1.17;;
14554;SDS011;7364;50.870;4.722;2022-10-16T01:42:28;1.57;;;1.10;;
14554;SDS011;7364;50.870;4.722;2022-10-16T01:45:03;3.10;;;1.10;;
14554;SDS011;7364;50.870;4.722;2022-10-16T01:47:33;2.70;;;1.30;;
14554;SDS011;7364;50.870;4.722;2022-10-16T01:50:02;2.60;;;1.27;;
14554;SDS011;7364;50.870;4.722;2022-10-16T01:52:31;1.60;;;1.20;;
14554;SDS011;7364;50.870;4.722;2022-10-16T01:55:00;3.47;;;1.23;;
14554;SDS011;7364;50.870;4.722;2022-10-16T01:57:31;1.83;;;1.10;;
14554;SDS011;7364;50.870;4.722;2022-10-16T02:00:04;3.13;;;1.30;;
14554;SDS011;7364;50.870;4.722;2022-10-16T02:02:35;2.03;;;1.17;;
14554;SDS011;7364;50.870;4.722;2022-10-16T02:05:06;3.43;;;1.20;;
14554;SDS011;7364;50.870;4.722;2022-10-16T02:07:39;1.77;;;1.00;;
14554;SDS011;7364;50.870;4.722;2022-10-16T02:10:07;1.50;;;1.00;;
14554;SDS011;7364;50.870;4.722;2022-10-16T02:12:37;3.03;;;1.30;;
14554;SDS011;7364;50.870;4.722;2022-10-16T02:15:08;2.70;;;1.63;;
14554;SDS011;7364;50.870;4.722;2022-10-16T02:17:37;1.23;;;1.00;;
14554;SDS011;7364;50.870;4.722;2022-10-16T02:20:04;4.43;;;1.13;;
14554;SDS011;7364;50.870;4.722;2022-10-16T02:22:32;2.10;;;1.23;;
14554;SDS011;7364;50.870;4.722;2022-10-16T02:25:03;2.03;;;1.37;;
14554;SDS011;7364;50.870;4.722;2022-10-16T02:27:34;2.20;;;1.33;;
14554;SDS011;7364;50.870;4.722;2022-10-16T02:30:09;2.00;;;1.40;;
14554;SDS011;7364;50.870;4.722;2022-10-16T02:32:40;2.07;;;1.37;;
14554;SDS011;7364;50.870;4.722;2022-10-16T02:35:10;3.93;;;1.27;;
14554;SDS011;7364;50.870;4.722;2022-10-16T02:37:38;2.10;;;1.00;;
14554;SDS011;7364;50.870;4.722;2022-10-16T02:40:07;2.20;;;1.30;;
14554;SDS011;7364;50.870;4.722;2022-10-16T02:42:35;2.63;;;1.60;;
14554;SDS011;7364;50.870;4.722;2022-10-16T02:45:06;1.80;;;1.27;;
14554;SDS011;7364;50.870;4.722;2022-10-16T02:47:35;1.53;;;1.10;;
14554;SDS011;7364;50.870;4.722;2022-10-16T02:50:03;1.67;;;1.13;;
14554;SDS011;7364;50.870;4.722;2022-10-16T02:52:31;3.90;;;1.30;;
14554;SDS011;7364;50.870;4.722;2022-10-16T02:54:58;1.87;;;1.20;;
14554;SDS011;7364;50.870;4.722;2022-10-16T02:57:25;2.87;;;1.40;;
14554;SDS011;7364;50.870;4.722;2022-10-16T02:59:52;6.97;;;1.50;;
14554;SDS011;7364;50.870;4.722;2022-10-16T03:02:21;2.57;;;1.37;;
14554;SDS011;7364;50.870;4.722;2022-10-16T03:04:48;2.47;;;1.33;;
14554;SDS011;7364;50.870;4.722;2022-10-16T03:07:15;3.50;;;1.40;;
14554;SDS011;7364;50.870;4.722;2022-10-16T03:09:43;2.43;;;1.10;;
14554;SDS011;7364;50.870;4.722;2022-10-16T03:12:10;3.23;;;1.30;;
14554;SDS011;7364;50.870;4.722;2022-10-16T03:14:38;2.73;;;1.40;;
14554;SDS011;7364;50.870;4.722;2022-10-16T03:17:06;3.53;;;1.50;;
14554;SDS011;7364;50.870;4.722;2022-10-16T03:19:34;2.00;;;1.37;;
14554;SDS011;7364;50.870;4.722;2022-10-16T03:22:02;3.37;;;1.50;;
14554;SDS011;7364;50.870;4.722;2022-10-16T03:24:29;5.23;;;1.70;;
14554;SDS011;7364;50.870;4.722;2022-10-16T03:26:56;2.30;;;1.37;;
14554;SDS011;7364;50.870;4.722;2022-10-16T03:29:23;3.10;;;1.90;;
14554;SDS011;7364;50.870;4.722;2022-10-16T03:31:51;1.53;;;1.07;;
14554;SDS011;7364;50.870;4.722;2022-10-16T03:34:18;3.83;;;1.63;;
14554;SDS011;7364;50.870;4.722;2022-10-16T03:36:47;4.83;;;1.87;;
14554;SDS011;7364;50.870;4.722;2022-10-16T03:39:14;3.67;;;1.40;;
14554;SDS011;7364;50.870;4.722;2022-10-16T03:41:41;1.63;;;1.17;;
14554;SDS011;7364;50.870;4.722;2022-10-16T03:44:08;3.67;;;1.57;;
14554;SDS011;7364;50.870;4.722;2022-10-16T03:46:36;3.50;;;1.73;;
14554;SDS011;7364;50.870;4.722;2022-10-16T03:49:03;2.13;;;1.50;;
14554;SDS011;7364;50.870;4.722;2022-10-16T03:51:30;1.93;;;1.27;;
14554;SDS011;7364;50.870;4.722;2022-10-16T03:53:59;3.03;;;1.60;;
14554;SDS011;7364;50.870;4.722;2022-10-16T03:56:26;2.30;;;1.47;;
14554;SDS011;7364;50.870;4.722;2022-10-16T03:58:53;2.30;;;1.50;;
14554;SDS011;7364;50.870;4.722;2022-10-16T04:01:20;3.10;;;1.43;;
14554;SDS011;7364;50.870;4.722;2022-10-16T04:03:47;3.73;;;1.77;;
14554;SDS011;7364;50.870;4.722;2022-10-16T04:06:14;2.27;;;1.57;;
14554;SDS011;7364;50.870;4.722;2022-10-16T04:08:42;2.07;;;1.30;;
14554;SDS011;7364;50.870;4.722;2022-10-16T04:11:11;2.87;;;1.57;;
14554;SDS011;7364;50.870;4.722;2022-10-16T04:13:38;3.83;;;1.53;;
14554;SDS011;7364;50.870;4.722;2022-10-16T04:16:05;2.23;;;1.57;;
14554;SDS011;7364;50.870;4.722;2022-10-16T04:18:35;2.57;;;1.77;;
14554;SDS011;7364;50.870;4.722;2022-10-16T04:21:03;2.87;;;1.63;;
14554;SDS011;7364;50.870;4.722;2022-10-16T04:23:30;4.43;;;2.07;;
14554;SDS011;7364;50.870;4.722;2022-10-16T04:25:58;4.30;;;1.70;;
14554;SDS011;7364;50.870;4.722;2022-10-16T04:28:27;4.87;;;1.73;;
14554;SDS011;7364;50.870;4.722;2022-10-16T04:30:55;3.37;;;2.13;;
14554;SDS011;7364;50.870;4.722;2022-10-16T04:33:22;4.20;;;1.70;;
14554;SDS011;7364;50.870;4.722;2022-10-16T04:35:55;3.43;;;2.10;;
14554;SDS011;7364;50.870;4.722;2022-10-16T04:38:23;5.27;;;2.37;;
14554;SDS011;7364;50.870;4.722;2022-10-16T04:40:50;5.57;;;2.23;;
14554;SDS011;7364;50.870;4.722;2022-10-16T04:43:18;4.23;;;2.00;;
14554;SDS011;7364;50.870;4.722;2022-10-16T04:45:47;4.43;;;1.90;;
14554;SDS011;7364;50.870;4.722;2022-10-16T04:48:15;5.67;;;2.23;;
14554;SDS011;7364;50.870;4.722;2022-10-16T04:50:43;3.63;;;1.57;;
14554;SDS011;7364;50.870;4.722;2022-10-16T04:53:10;4.37;;;1.80;;
14554;SDS011;7364;50.870;4.722;2022-10-16T04:55:37;4.90;;;2.23;;
14554;SDS011;7364;50.870;4.722;2022-10-16T04:58:05;4.27;;;2.40;;
14554;SDS011;7364;50.870;4.722;2022-10-16T05:00:32;4.20;;;1.87;;
14554;SDS011;7364;50.870;4.722;2022-10-16T05:03:01;9.60;;;2.20;;
14554;SDS011;7364;50.870;4.722;2022-10-16T05:05:31;2.80;;;1.77;;
14554;SDS011;7364;50.870;4.722;2022-10-16T05:07:58;4.23;;;2.23;;
14554;SDS011;7364;50.870;4.722;2022-10-16T05:10:25;3.03;;;2.20;;
14554;SDS011;7364;50.870;4.722;2022-10-16T05:12:53;6.50;;;2.70;;
14554;SDS011;7364;50.870;4.722;2022-10-16T05:15:20;4.70;;;2.10;;
14554;SDS011;7364;50.870;4.722;2022-10-16T05:17:51;3.43;;;2.03;;
14554;SDS011;7364;50.870;4.722;2022-10-16T05:20:20;3.57;;;2.33;;
14554;SDS011;7364;50.870;4.722;2022-10-16T05:22:48;3.27;;;1.97;;
14554;SDS011;7364;50.870;4.722;2022-10-16T05:25:18;3.27;;;1.87;;
14554;SDS011;7364;50.870;4.722;2022-10-16T05:27:46;4.80;;;2.20;;
14554;SDS011;7364;50.870;4.722;2022-10-16T05:30:14;4.77;;;2.87;;
14554;SDS011;7364;50.870;4.722;2022-10-16T05:32:45;4.03;;;2.00;;
14554;SDS011;7364;50.870;4.722;2022-10-16T05:35:13;5.67;;;2.27;;
14554;SDS011;7364;50.870;4.722;2022-10-16T05:37:42;4.77;;;2.13;;
14554;SDS011;7364;50.870;4.722;2022-10-16T05:40:09;2.73;;;1.83;;
14554;SDS011;7364;50.870;4.722;2022-10-16T05:42:37;3.37;;;1.90;;
14554;SDS011;7364;50.870;4.722;2022-10-16T05:45:05;4.30;;;2.07;;
14554;SDS011;7364;50.870;4.722;2022-10-16T05:47:34;2.70;;;2.00;;
14554;SDS011;7364;50.870;4.722;2022-10-16T05:50:02;5.70;;;2.30;;
14554;SDS011;7364;50.870;4.722;2022-10-16T05:52:30;5.33;;;2.10;;
14554;SDS011;7364;50.870;4.722;2022-10-16T05:54:59;4.57;;;2.00;;
14554;SDS011;7364;50.870;4.722;2022-10-16T05:57:26;4.63;;;2.20;;
14554;SDS011;7364;50.870;4.722;2022-10-16T05:59:53;5.83;;;2.47;;
14554;SDS011;7364;50.870;4.722;2022-10-16T06:02:20;3.60;;;2.50;;
14554;SDS011;7364;50.870;4.722;2022-10-16T06:04:49;2.70;;;1.93;;
14554;SDS011;7364;50.870;4.722;2022-10-16T06:07:18;4.43;;;2.57;;
14554;SDS011;7364;50.870;4.722;2022-10-16T06:09:47;3.83;;;2.27;;
14554;SDS011;7364;50.870;4.722;2022-10-16T06:12:16;4.30;;;2.43;;
14554;SDS011;7364;50.870;4.722;2022-10-16T06:14:44;2.40;;;1.90;;
14554;SDS011;7364;50.870;4.722;2022-10-16T06:17:12;3.30;;;2.10;;
14554;SDS011;7364;50.870;4.722;2022-10-16T06:19:39;5.60;;;2.30;;
14554;SDS011;7364;50.870;4.722;2022-10-16T06:22:07;3.77;;;2.20;;
14554;SDS011;7364;50.870;4.722;2022-10-16T06:24:34;3.30;;;2.43;;
14554;SDS011;7364;50.870;4.722;2022-10-16T06:27:02;3.33;;;2.30;;
14554;SDS011;7364;50.870;4.722;2022-10-16T06:29:31;6.40;;;2.47;;
14554;SDS011;7364;50.870;4.722;2022-10-16T06:31:58;5.50;;;2.50;;
14554;SDS011;7364;50.870;4.722;2022-10-16T06:34:25;3.83;;;2.20;;
14554;SDS011;7364;50.870;4.722;2022-10-16T06:36:52;6.03;;;2.43;;
14554;SDS011;7364;50.870;4.722;2022-10-16T06:39:20;3.83;;;2.43;;
14554;SDS011;7364;50.870;4.722;2022-10-16T06:41:48;4.13;;;2.80;;
14554;SDS011;7364;50.870;4.722;2022-10-16T06:44:15;3.77;;;2.27;;
14554;SDS011;7364;50.870;4.722;2022-10-16T06:46:43;4.60;;;2.40;;
14554;SDS011;7364;50.870;4.722;2022-10-16T06:49:11;4.77;;;2.47;;
14554;SDS011;7364;50.870;4.722;2022-10-16T06:51:38;7.40;;;2.60;;
14554;SDS011;7364;50.870;4.722;2022-10-16T06:54:06;3.77;;;2.50;;
14554;SDS011;7364;50.870;4.722;2022-10-16T06:56:34;5.57;;;2.60;;
14554;SDS011;7364;50.870;4.722;2022-10-16T06:59:02;3.23;;;2.30;;
14554;SDS011;7364;50.870;4.722;2022-10-16T07:01:29;5.60;;;2.90;;
14554;SDS011;7364;50.870;4.722;2022-10-16T07:04:00;4.97;;;2.90;;
14554;SDS011;7364;50.870;4.722;2022-10-16T07:06:30;6.10;;;2.90;;
14554;SDS011;7364;50.870;4.722;2022-10-16T07:09:00;4.77;;;2.37;;
14554;SDS011;7364;50.870;4.722;2022-10-16T07:11:28;4.23;;;2.67;;
14554;SDS011;7364;50.870;4.722;2022-10-16T07:13:56;4.03;;;2.83;;
14554;SDS011;7364;50.870;4.722;2022-10-16T07:16:24;9.80;;;2.70;;
14554;SDS011;7364;50.870;4.722;2022-10-16T07:18:53;6.13;;;2.30;;
14554;SDS011;7364;50.870;4.722;2022-10-16T07:21:26;3.03;;;2.23;;
14554;SDS011;7364;50.870;4.722;2022-10-16T07:23:54;4.40;;;2.53;;
14554;SDS011;7364;50.870;4.722;2022-10-16T07:26:23;5.77;;;2.73;;
14554;SDS011;7364;50.870;4.722;2022-10-16T07:28:51;4.03;;;2.67;;
14554;SDS011;7364;50.870;4.722;2022-10-16T07:31:18;4.23;;;2.60;;
14554;SDS011;7364;50.870;4.722;2022-10-16T07:33:47;3.30;;;2.37;;
14554;SDS011;7364;50.870;4.722;2022-10-16T07:36:14;3.10;;;2.20;;
14554;SDS011;7364;50.870;4.722;2022-10-16T07:38:44;4.30;;;2.47;;
14554;SDS011;7364;50.870;4.722;2022-10-16T07:41:13;4.97;;;2.50;;
14554;SDS011;7364;50.870;4.722;2022-10-16T07:43:45;3.70;;;2.40;;
14554;SDS011;7364;50.870;4.722;2022-10-16T07:46:12;4.50;;;2.67;;
14554;SDS011;7364;50.870;4.722;2022-10-16T07:48:41;3.23;;;2.50;;
14554;SDS011;7364;50.870;4.722;2022-10-16T07:51:11;7.37;;;2.80;;
14554;SDS011;7364;50.870;4.722;2022-10-16T07:53:39;3.53;;;2.60;;
14554;SDS011;7364;50.870;4.722;2022-10-16T07:56:08;5.43;;;2.47;;
14554;SDS011;7364;50.870;4.722;2022-10-16T07:58:35;4.73;;;2.50;;
14554;SDS011;7364;50.870;4.722;2022-10-16T08:01:03;5.97;;;2.50;;
14554;SDS011;7364;50.870;4.722;2022-10-16T08:03:31;3.03;;;2.07;;
14554;SDS011;7364;50.870;4.722;2022-10-16T08:06:03;4.07;;;2.43;;
14554;SDS011;7364;50.870;4.722;2022-10-16T08:08:31;4.37;;;2.20;;
14554;SDS011;7364;50.870;4.722;2022-10-16T08:11:01;3.90;;;2.40;;
14554;SDS011;7364;50.870;4.722;2022-10-16T08:13:34;6.20;;;2.57;;
14554;SDS011;7364;50.870;4.722;2022-10-16T08:16:04;4.60;;;2.67;;
14554;SDS011;7364;50.870;4.722;2022-10-16T08:18:40;4.50;;;2.10;;
14554;SDS011;7364;50.870;4.722;2022-10-16T08:21:11;4.70;;;2.33;;
14554;SDS011;7364;50.870;4.722;2022-10-16T08:23:41;4.20;;;2.37;;
14554;SDS011;7364;50.870;4.722;2022-10-16T08:26:09;5.77;;;2.10;;
14554;SDS011;7364;50.870;4.722;2022-10-16T08:28:40;5.27;;;1.93;;
14554;SDS011;7364;50.870;4.722;2022-10-16T08:31:09;7.00;;;2.30;;
14554;SDS011;7364;50.870;4.722;2022-10-16T08:33:40;3.57;;;1.93;;
14554;SDS011;7364;50.870;4.722;2022-10-16T08:36:13;3.70;;;2.20;;
14554;SDS011;7364;50.870;4.722;2022-10-16T08:38:42;3.73;;;2.20;;
14554;SDS011;7364;50.870;4.722;2022-10-16T08:41:15;8.53;;;2.37;;
14554;SDS011;7364;50.870;4.722;2022-10-16T08:47:00;4.57;;;2.07;;
14554;SDS011;7364;50.870;4.722;2022-10-16T08:49:37;5.23;;;1.80;;
14554;SDS011;7364;50.870;4.722;2022-10-16T08:52:13;3.77;;;1.53;;
14554;SDS011;7364;50.870;4.722;2022-10-16T08:54:41;5.23;;;1.97;;
14554;SDS011;7364;50.870;4.722;2022-10-16T08:57:19;3.03;;;1.73;;
14554;SDS011;7364;50.870;4.722;2022-10-16T08:59:52;3.37;;;1.73;;
14554;SDS011;7364;50.870;4.722;2022-10-16T09:02:26;5.77;;;1.80;;
14554;SDS011;7364;50.870;4.722;2022-10-16T09:05:02;6.33;;;2.07;;
14554;SDS011;7364;50.870;4.722;2022-10-16T09:07:55;3.97;;;1.93;;
14554;SDS011;7364;50.870;4.722;2022-10-16T09:10:49;2.00;;;1.20;;
14554;SDS011;7364;50.870;4.722;2022-10-16T09:13:34;3.03;;;1.67;;
14554;SDS011;7364;50.870;4.722;2022-10-16T09:16:16;3.47;;;1.33;;
14554;SDS011;7364;50.870;4.722;2022-10-16T09:18:51;8.90;;;1.70;;
14554;SDS011;7364;50.870;4.722;2022-10-16T09:21:25;3.53;;;1.60;;
14554;SDS011;7364;50.870;4.722;2022-10-16T09:23:57;5.10;;;1.33;;
14554;SDS011;7364;50.870;4.722;2022-10-16T09:26:25;5.07;;;1.60;;
14554;SDS011;7364;50.870;4.722;2022-10-16T09:28:52;5.27;;;1.83;;
14554;SDS011;7364;50.870;4.722;2022-10-16T09:31:22;2.93;;;1.30;;
14554;SDS011;7364;50.870;4.722;2022-10-16T09:33:51;2.70;;;1.43;;
14554;SDS011;7364;50.870;4.722;2022-10-16T09:36:21;7.57;;;1.93;;
14554;SDS011;7364;50.870;4.722;2022-10-16T09:39:00;1.93;;;1.23;;
14554;SDS011;7364;50.870;4.722;2022-10-16T09:41:29;3.60;;;1.37;;
14554;SDS011;7364;50.870;4.722;2022-10-16T09:43:57;5.87;;;1.60;;
14554;SDS011;7364;50.870;4.722;2022-10-16T09:46:29;4.73;;;1.87;;
14554;SDS011;7364;50.870;4.722;2022-10-16T09:48:58;3.23;;;1.53;;
14554;SDS011;7364;50.870;4.722;2022-10-16T09:51:27;3.73;;;1.60;;
14554;SDS011;7364;50.870;4.722;2022-10-16T09:53:57;6.53;;;1.60;;
14554;SDS011;7364;50.870;4.722;2022-10-16T09:56:27;5.10;;;1.60;;
14554;SDS011;7364;50.870;4.722;2022-10-16T09:58:56;6.10;;;1.83;;
14554;SDS011;7364;50.870;4.722;2022-10-16T10:01:27;4.93;;;1.57;;
14554;SDS011;7364;50.870;4.722;2022-10-16T10:04:01;4.47;;;1.83;;
14554;SDS011;7364;50.870;4.722;2022-10-16T10:06:29;5.20;;;1.57;;
14554;SDS011;7364;50.870;4.722;2022-10-16T10:09:02;6.27;;;1.60;;
14554;SDS011;7364;50.870;4.722;2022-10-16T10:17:11;3.67;;;1.73;;
14554;SDS011;7364;50.870;4.722;2022-10-16T10:19:40;2.77;;;1.40;;
14554;SDS011;7364;50.870;4.722;2022-10-16T10:22:17;3.00;;;1.17;;
14554;SDS011;7364;50.870;4.722;2022-10-16T10:24:54;2.83;;;1.30;;
14554;SDS011;7364;50.870;4.722;2022-10-16T10:27:39;4.00;;;1.40;;
14554;SDS011;7364;50.870;4.722;2022-10-16T10:30:19;2.10;;;1.40;;
14554;SDS011;7364;50.870;4.722;2022-10-16T10:32:56;2.47;;;1.27;;
14554;SDS011;7364;50.870;4.722;2022-10-16T10:35:39;4.13;;;1.40;;
14554;SDS011;7364;50.870;4.722;2022-10-16T10:38:16;6.00;;;1.63;;
14554;SDS011;7364;50.870;4.722;2022-10-16T10:40:58;2.63;;;1.33;;
14554;SDS011;7364;50.870;4.722;2022-10-16T10:43:52;3.47;;;1.30;;
14554;SDS011;7364;50.870;4.722;2022-10-16T10:46:30;2.00;;;1.10;;
14554;SDS011;7364;50.870;4.722;2022-10-16T10:49:11;3.47;;;1.50;;
14554;SDS011;7364;50.870;4.722;2022-10-16T10:52:00;3.53;;;1.67;;
14554;SDS011;7364;50.870;4.722;2022-10-16T10:54:47;8.37;;;1.67;;
14554;SDS011;7364;50.870;4.722;2022-10-16T10:57:25;3.50;;;1.37;;
14554;SDS011;7364;50.870;4.722;2022-10-16T11:00:04;3.23;;;1.60;;
14554;SDS011;7364;50.870;4.722;2022-10-16T11:02:40;2.57;;;1.03;;
14554;SDS011;7364;50.870;4.722;2022-10-16T11:08:13;2.53;;;1.30;;
14554;SDS011;7364;50.870;4.722;2022-10-16T11:10:49;3.33;;;1.63;;
14554;SDS011;7364;50.870;4.722;2022-10-16T11:13:24;3.90;;;1.30;;
14554;SDS011;7364;50.870;4.722;2022-10-16T11:15:59;4.47;;;1.60;;
14554;SDS011;7364;50.870;4.722;2022-10-16T11:18:32;4.43;;;1.97;;
14554;SDS011;7364;50.870;4.722;2022-10-16T11:21:16;4.30;;;1.40;;
14554;SDS011;7364;50.870;4.722;2022-10-16T11:23:48;6.17;;;1.67;;
14554;SDS011;7364;50.870;4.722;2022-10-16T11:26:21;4.27;;;1.73;;
14554;SDS011;7364;50.870;4.722;2022-10-16T11:28:51;3.80;;;1.70;;
14554;SDS011;7364;50.870;4.722;2022-10-16T11:31:23;4.70;;;1.80;;
14554;SDS011;7364;50.870;4.722;2022-10-16T11:33:59;3.43;;;1.30;;
14554;SDS011;7364;50.870;4.722;2022-10-16T11:36:35;4.03;;;1.27;;
14554;SDS011;7364;50.870;4.722;2022-10-16T11:39:08;4.77;;;1.80;;
14554;SDS011;7364;50.870;4.722;2022-10-16T11:41:47;4.93;;;1.50;;
14554;SDS011;7364;50.870;4.722;2022-10-16T11:44:27;2.97;;;1.40;;
14554;SDS011;7364;50.870;4.722;2022-10-16T11:47:07;4.30;;;1.50;;
14554;SDS011;7364;50.870;4.722;2022-10-16T11:49:41;3.77;;;1.50;;
14554;SDS011;7364;50.870;4.722;2022-10-16T11:52:17;5.33;;;1.40;;
14554;SDS011;7364;50.870;4.722;2022-10-16T11:54:51;2.93;;;1.17;;
14554;SDS011;7364;50.870;4.722;2022-10-16T11:57:25;3.63;;;1.33;;
14554;SDS011;7364;50.870;4.722;2022-10-16T12:00:00;3.37;;;1.53;;
14554;SDS011;7364;50.870;4.722;2022-10-16T12:02:36;3.17;;;1.60;;
14554;SDS011;7364;50.870;4.722;2022-10-16T12:05:17;4.43;;;1.97;;
14554;SDS011;7364;50.870;4.722;2022-10-16T12:07:55;3.83;;;1.50;;
14554;SDS011;7364;50.870;4.722;2022-10-16T12:10:29;8.10;;;1.97;;
14554;SDS011;7364;50.870;4.722;2022-10-16T12:13:02;4.00;;;1.27;;
14554;SDS011;7364;50.870;4.722;2022-10-16T12:15:31;4.10;;;1.57;;
14554;SDS011;7364;50.870;4.722;2022-10-16T12:18:00;7.20;;;1.40;;
14554;SDS011;7364;50.870;4.722;2022-10-16T12:20:29;3.67;;;1.23;;
14554;SDS011;7364;50.870;4.722;2022-10-16T12:23:00;4.00;;;1.33;;
14554;SDS011;7364;50.870;4.722;2022-10-16T12:25:29;2.37;;;1.23;;
14554;SDS011;7364;50.870;4.722;2022-10-16T12:28:02;3.87;;;1.10;;
14554;SDS011;7364;50.870;4.722;2022-10-16T12:30:32;6.13;;;1.33;;
14554;SDS011;7364;50.870;4.722;2022-10-16T12:33:02;6.70;;;1.50;;
14554;SDS011;7364;50.870;4.722;2022-10-16T12:35:33;7.50;;;1.70;;
14554;SDS011;7364;50.870;4.722;2022-10-16T12:38:17;4.40;;;1.73;;
14554;SDS011;7364;50.870;4.722;2022-10-16T12:40:46;7.30;;;1.40;;
14554;SDS011;7364;50.870;4.722;2022-10-16T12:43:27;3.20;;;1.50;;
14554;SDS011;7364;50.870;4.722;2022-10-16T12:46:04;4.07;;;1.20;;
14554;SDS011;7364;50.870;4.722;2022-10-16T12:48:46;6.13;;;1.50;;
14554;SDS011;7364;50.870;4.722;2022-10-16T12:51:21;2.87;;;1.33;;
14554;SDS011;7364;50.870;4.722;2022-10-16T12:54:01;3.73;;;1.30;;
14554;SDS011;7364;50.870;4.722;2022-10-16T12:56:36;4.70;;;1.67;;
14554;SDS011;7364;50.870;4.722;2022-10-16T12:59:14;5.47;;;1.70;;
14554;SDS011;7364;50.870;4.722;2022-10-16T13:01:55;4.03;;;1.47;;
14554;SDS011;7364;50.870;4.722;2022-10-16T13:07:33;5.60;;;1.33;;
14554;SDS011;7364;50.870;4.722;2022-10-16T13:10:14;2.13;;;1.37;;
14554;SDS011;7364;50.870;4.722;2022-10-16T13:12:52;2.67;;;1.03;;
14554;SDS011;7364;50.870;4.722;2022-10-16T13:15:40;3.27;;;1.47;;
14554;SDS011;7364;50.870;4.722;2022-10-16T13:18:21;6.20;;;1.27;;
14554;SDS011;7364;50.870;4.722;2022-10-16T13:21:02;5.13;;;1.47;;
14554;SDS011;7364;50.870;4.722;2022-10-16T13:23:47;2.73;;;1.40;;
14554;SDS011;7364;50.870;4.722;2022-10-16T13:26:23;3.20;;;1.47;;
14554;SDS011;7364;50.870;4.722;2022-10-16T13:28:58;6.30;;;1.67;;
14554;SDS011;7364;50.870;4.722;2022-10-16T13:31:26;4.23;;;1.30;;
14554;SDS011;7364;50.870;4.722;2022-10-16T13:33:56;4.83;;;1.90;;
14554;SDS011;7364;50.870;4.722;2022-10-16T13:36:27;6.43;;;2.37;;
14554;SDS011;7364;50.870;4.722;2022-10-16T13:39:06;2.47;;;1.37;;
14554;SDS011;7364;50.870;4.722;2022-10-16T13:41:43;4.87;;;2.10;;
14554;SDS011;7364;50.870;4.722;2022-10-16T13:44:12;3.40;;;1.47;;
14554;SDS011;7364;50.870;4.722;2022-10-16T13:46:45;5.33;;;1.70;;
14554;SDS011;7364;50.870;4.722;2022-10-16T13:49:14;5.70;;;1.83;;
14554;SDS011;7364;50.870;4.722;2022-10-16T13:51:47;4.23;;;1.67;;
14554;SDS011;7364;50.870;4.722;2022-10-16T13:54:21;5.37;;;1.90;;
14554;SDS011;7364;50.870;4.722;2022-10-16T13:56:50;2.33;;;1.40;;
14554;SDS011;7364;50.870;4.722;2022-10-16T13:59:24;3.97;;;1.40;;
14554;SDS011;7364;50.870;4.722;2022-10-16T14:01:54;2.70;;;1.47;;
14554;SDS011;7364;50.870;4.722;2022-10-16T14:04:23;3.83;;;1.90;;
14554;SDS011;7364;50.870;4.722;2022-10-16T14:06:58;4.23;;;1.80;;
14554;SDS011;7364;50.870;4.722;2022-10-16T14:09:26;2.93;;;1.67;;
14554;SDS011;7364;50.870;4.722;2022-10-16T14:11:56;6.50;;;2.13;;
14554;SDS011;7364;50.870;4.722;2022-10-16T14:14:26;4.03;;;1.47;;
14554;SDS011;7364;50.870;4.722;2022-10-16T14:17:02;6.80;;;2.30;;
14554;SDS011;7364;50.870;4.722;2022-10-16T14:19:29;4.27;;;1.93;;
14554;SDS011;7364;50.870;4.722;2022-10-16T14:21:58;6.50;;;1.73;;
14554;SDS011;7364;50.870;4.722;2022-10-16T14:24:31;4.97;;;1.70;;
14554;SDS011;7364;50.870;4.722;2022-10-16T14:27:01;2.63;;;1.23;;
14554;SDS011;7364;50.870;4.722;2022-10-16T14:29:30;3.67;;;1.37;;
14554;SDS011;7364;50.870;4.722;2022-10-16T14:31:58;4.83;;;1.50;;
14554;SDS011;7364;50.870;4.722;2022-10-16T14:34:27;4.77;;;1.83;;
14554;SDS011;7364;50.870;4.722;2022-10-16T14:36:58;4.17;;;1.47;;
14554;SDS011;7364;50.870;4.722;2022-10-16T14:39:32;3.23;;;1.57;;
14554;SDS011;7364;50.870;4.722;2022-10-16T14:42:01;7.23;;;1.63;;
14554;SDS011;7364;50.870;4.722;2022-10-16T14:44:30;2.80;;;1.50;;
14554;SDS011;7364;50.870;4.722;2022-10-16T14:47:06;2.93;;;1.37;;
14554;SDS011;7364;50.870;4.722;2022-10-16T14:49:36;4.13;;;1.70;;
14554;SDS011;7364;50.870;4.722;2022-10-16T14:52:07;3.77;;;1.37;;
14554;SDS011;7364;50.870;4.722;2022-10-16T14:54:36;4.07;;;1.60;;
14554;SDS011;7364;50.870;4.722;2022-10-16T14:57:15;4.07;;;1.30;;
14554;SDS011;7364;50.870;4.722;2022-10-16T14:59:44;3.17;;;1.40;;
14554;SDS011;7364;50.870;4.722;2022-10-16T15:02:16;2.70;;;1.40;;
14554;SDS011;7364;50.870;4.722;2022-10-16T15:04:49;3.50;;;1.23;;
14554;SDS011;7364;50.870;4.722;2022-10-16T15:07:17;4.30;;;1.37;;
14554;SDS011;7364;50.870;4.722;2022-10-16T15:09:48;3.77;;;1.27;;
14554;SDS011;7364;50.870;4.722;2022-10-16T15:12:17;3.37;;;1.53;;
14554;SDS011;7364;50.870;4.722;2022-10-16T15:14:44;3.07;;;1.30;;
14554;SDS011;7364;50.870;4.722;2022-10-16T15:17:11;4.37;;;1.57;;
14554;SDS011;7364;50.870;4.722;2022-10-16T15:19:39;3.50;;;1.80;;
14554;SDS011;7364;50.870;4.722;2022-10-16T15:22:06;5.07;;;1.80;;
14554;SDS011;7364;50.870;4.722;2022-10-16T15:24:35;3.40;;;1.60;;
14554;SDS011;7364;50.870;4.722;2022-10-16T15:27:02;4.90;;;2.17;;
14554;SDS011;7364;50.870;4.722;2022-10-16T15:29:34;2.57;;;1.30;;
14554;SDS011;7364;50.870;4.722;2022-10-16T15:32:01;4.97;;;1.70;;
14554;SDS011;7364;50.870;4.722;2022-10-16T15:34:28;4.93;;;1.67;;
14554;SDS011;7364;50.870;4.722;2022-10-16T15:36:57;3.87;;;1.60;;
14554;SDS011;7364;50.870;4.722;2022-10-16T15:39:25;4.97;;;1.97;;